Time;durP1;ratioP1;P1;durP2;ratioP2;P2;SDS_P1;SDS_P2;PMS_P1;PMS_P2;Temp;Humidity;BMP_temperature;BMP_pressure;BME280_temperature;BME280_humidity;BME280_pressure;Samples;Min_cycle;Max_cycle;Signal;HPM_P1;HPM_P2
2024/03/19 00:00:12;;;;;;;19.73;12.43;;;;;;;9.56;69.58;92998.28;520815;28;749;-68
2024/03/19 00:00:28;;;;;;;19.70;12.07;;;;;;;9.57;69.29;93005.97;520888;28;906;-68
2024/03/19 00:00:44;;;;;;;17.23;11.75;;;;;;;9.58;69.39;93003.97;520834;28;907;-68
2024/03/19 00:01:00;;;;;;;18.08;11.07;;;;;;;9.59;69.31;93002.69;520863;28;871;-68
2024/03/19 00:01:15;;;;;;;16.37;9.83;;;;;;;9.61;69.65;93002.88;520822;28;840;-68
2024/03/19 00:01:30;;;;;;;13.52;9.75;;;;;;;9.61;69.79;92992.59;520748;28;753;-68
2024/03/19 00:01:46;;;;;;;13.30;9.80;;;;;;;9.62;69.94;92996.78;520889;28;903;-68
2024/03/19 00:02:01;;;;;;;11.82;8.15;;;;;;;9.64;69.97;92999.00;520842;28;851;-68
2024/03/19 00:02:17;;;;;;;9.27;6.33;;;;;;;9.62;70.03;92996.06;520895;28;792;-67
2024/03/19 00:02:33;;;;;;;8.55;5.70;;;;;;;9.61;70.33;92992.59;520767;28;884;-68
2024/03/19 00:02:48;;;;;;;8.23;5.87;;;;;;;9.61;70.85;92994.59;520924;28;764;-67
2024/03/19 00:03:04;;;;;;;7.30;5.95;;;;;;;9.59;70.79;92992.41;520868;28;868;-68
2024/03/19 00:03:19;;;;;;;7.38;5.80;;;;;;;9.56;71.30;92992.75;520793;28;915;-68
2024/03/19 00:03:35;;;;;;;9.03;5.83;;;;;;;9.54;71.37;92993.31;520924;28;796;-68
2024/03/19 00:03:50;;;;;;;8.65;5.97;;;;;;;9.52;71.33;92989.66;520861;28;796;-68
2024/03/19 00:04:06;;;;;;;8.37;6.07;;;;;;;9.54;71.14;92998.09;520767;28;748;-68
2024/03/19 00:04:21;;;;;;;7.93;5.07;;;;;;;9.53;71.39;92994.59;520905;28;832;-68
2024/03/19 00:04:37;;;;;;;5.85;4.32;;;;;;;9.53;71.60;92988.38;520901;28;867;-68
2024/03/19 00:04:52;;;;;;;4.60;4.03;;;;;;;9.51;71.81;92994.41;520862;28;891;-68
2024/03/19 00:05:08;;;;;;;4.22;3.83;;;;;;;9.52;71.77;92989.66;520871;28;1067;-68
2024/03/19 00:05:25;;;;;;;4.78;4.15;;;;;;;9.51;71.88;92991.66;520831;28;844;-68
2024/03/19 00:05:41;;;;;;;5.65;4.20;;;;;;;9.51;71.64;92988.16;520760;28;887;-68
2024/03/19 00:05:56;;;;;;;4.60;3.60;;;;;;;9.51;71.95;92990.91;520890;28;828;-68
2024/03/19 00:06:12;;;;;;;3.95;3.55;;;;;;;9.51;71.85;92990.91;520866;28;804;-68
2024/03/19 00:06:27;;;;;;;4.28;3.88;;;;;;;9.51;72.22;92993.69;520881;28;785;-68
2024/03/19 00:06:43;;;;;;;4.10;3.70;;;;;;;9.49;72.11;92991.47;520743;28;848;-68
2024/03/19 00:06:58;;;;;;;4.23;3.60;;;;;;;9.49;72.40;92988.00;520912;28;756;-68
2024/03/19 00:07:14;;;;;;;5.53;3.85;;;;;;;9.45;72.63;92995.91;520885;28;780;-68
2024/03/19 00:07:29;;;;;;;6.03;4.37;;;;;;;9.42;72.78;92986.69;520817;28;1038;-68
2024/03/19 00:07:44;;;;;;;5.85;4.50;;;;;;;9.34;72.98;92988.00;520925;28;753;-68
2024/03/19 00:08:00;;;;;;;5.63;4.20;;;;;;;9.36;73.27;92993.69;520896;28;816;-69
2024/03/19 00:08:15;;;;;;;5.67;4.60;;;;;;;9.34;73.64;92993.50;520794;28;1113;-68
2024/03/19 00:08:31;;;;;;;6.47;5.47;;;;;;;9.33;73.54;92994.81;520819;28;816;-68
2024/03/19 00:08:47;;;;;;;7.70;5.83;;;;;;;9.31;73.55;92989.84;520841;28;884;-68
2024/03/19 00:09:04;;;;;;;9.82;6.55;;;;;;;9.30;74.14;92998.66;520828;28;764;-68
2024/03/19 00:09:19;;;;;;;12.13;8.07;;;;;;;9.30;74.21;92995.91;520775;28;896;-68
2024/03/19 00:09:34;;;;;;;12.10;8.73;;;;;;;9.23;74.10;92993.88;520830;28;808;-68
2024/03/19 00:09:50;;;;;;;11.33;8.40;;;;;;;9.22;74.23;92995.91;520800;28;840;-68
2024/03/19 00:10:06;;;;;;;13.00;9.23;;;;;;;9.20;74.42;92995.72;521006;28;764;-68
2024/03/19 00:10:22;;;;;;;12.32;9.05;;;;;;;9.18;74.25;92995.56;520878;28;916;-68
2024/03/19 00:10:37;;;;;;;12.43;8.40;;;;;;;9.16;74.37;92995.34;520858;28;800;-68
2024/03/19 00:10:53;;;;;;;15.15;9.32;;;;;;;9.17;74.66;92996.81;520769;28;848;-68
2024/03/19 00:11:08;;;;;;;13.37;9.00;;;;;;;9.16;74.30;92996.09;520831;28;781;-68
2024/03/19 00:11:24;;;;;;;10.68;8.18;;;;;;;9.15;74.50;92994.63;520881;28;760;-68
2024/03/19 00:11:39;;;;;;;9.57;7.33;;;;;;;9.15;74.30;93000.13;520752;28;797;-68
2024/03/19 00:11:54;;;;;;;8.50;6.53;;;;;;;9.15;74.40;92989.13;520917;28;864;-68
2024/03/19 00:12:10;;;;;;;7.93;6.47;;;;;;;9.17;74.62;92996.81;520829;28;840;-68
2024/03/19 00:12:25;;;;;;;9.37;7.00;;;;;;;9.18;74.45;92995.56;520861;28;784;-68
2024/03/19 00:12:41;;;;;;;10.50;7.30;;;;;;;9.21;74.64;92996.44;520771;28;864;-68
2024/03/19 00:12:56;;;;;;;9.73;7.33;;;;;;;9.23;74.57;92993.88;520890;28;756;-68
2024/03/19 00:13:12;;;;;;;11.07;7.90;;;;;;;9.24;74.55;93000.88;520828;28;852;-68
2024/03/19 00:13:27;;;;;;;11.13;8.03;;;;;;;9.24;74.39;93003.63;520912;28;765;-68
2024/03/19 00:13:43;;;;;;;9.75;7.65;;;;;;;9.25;74.68;93000.31;520782;28;871;-68
2024/03/19 00:13:58;;;;;;;9.83;7.27;;;;;;;9.01;74.35;92960.28;520866;28;768;-68
2024/03/19 00:14:14;;;;;;;7.93;6.40;;;;;;;9.26;74.61;92995.53;520872;28;844;-68
2024/03/19 00:14:29;;;;;;;7.00;5.83;;;;;;;9.31;74.27;92994.63;520785;28;872;-68
2024/03/19 00:14:45;;;;;;;7.65;5.57;;;;;;;9.32;74.50;93001.59;520915;28;844;-68
2024/03/19 00:15:00;;;;;;;8.03;5.67;;;;;;;9.33;74.17;92997.56;520822;28;816;-68
2024/03/19 00:15:16;;;;;;;8.18;6.10;;;;;;;9.33;74.38;93000.31;520853;28;864;-68
2024/03/19 00:15:31;;;;;;;7.03;5.83;;;;;;;9.31;74.16;92997.38;520813;28;833;-67
2024/03/19 00:15:50;;;;;;;6.40;5.57;;;;;;;9.25;74.71;92996.84;520901;28;808;-68
2024/03/19 00:16:06;;;;;;;7.97;5.63;;;;;;;9.18;75.02;93000.31;520859;28;910;-68
2024/03/19 00:16:21;;;;;;;8.37;5.87;;;;;;;9.08;75.08;92997.38;520714;28;1923;-68
2024/03/19 00:16:37;;;;;;;8.07;6.18;;;;;;;9.08;75.11;92994.59;520749;28;828;-68
2024/03/19 00:16:52;;;;;;;7.50;6.23;;;;;;;9.01;75.52;92996.06;520835;28;880;-68
2024/03/19 00:17:08;;;;;;;6.25;5.65;;;;;;;8.98;75.83;92990.94;520896;28;812;-68
2024/03/19 00:17:23;;;;;;;6.93;5.13;;;;;;;8.93;75.85;92989.84;520871;28;877;-68
2024/03/19 00:17:39;;;;;;;7.13;5.00;;;;;;;8.91;75.96;92995.16;520789;28;840;-68
2024/03/19 00:17:54;;;;;;;5.00;4.40;;;;;;;8.88;76.31;92995.53;520866;28;823;-68
2024/03/19 00:18:10;;;;;;;4.97;4.33;;;;;;;8.86;76.40;92998.81;520767;28;873;-68
2024/03/19 00:18:25;;;;;;;5.55;4.60;;;;;;;8.85;76.45;92991.84;520927;28;809;-68
2024/03/19 00:18:41;;;;;;;4.40;4.00;;;;;;;8.84;76.68;92992.38;520812;28;864;-68
2024/03/19 00:18:56;;;;;;;4.30;3.90;;;;;;;8.83;76.69;92988.91;520841;28;1084;-68
2024/03/19 00:19:12;;;;;;;4.37;3.93;;;;;;;8.81;76.44;92991.47;520728;28;742;-68
2024/03/19 00:19:28;;;;;;;4.70;3.88;;;;;;;8.82;76.75;92990.19;520904;28;1168;-68
2024/03/19 00:19:43;;;;;;;5.53;4.07;;;;;;;8.83;76.87;92990.94;520857;28;891;-68
2024/03/19 00:19:59;;;;;;;5.93;4.03;;;;;;;8.83;76.75;92991.66;520837;28;878;-68
2024/03/19 00:20:14;;;;;;;6.40;3.63;;;;;;;8.86;76.71;92998.81;520861;28;797;-68
2024/03/19 00:20:30;;;;;;;5.97;3.73;;;;;;;8.88;77.01;92992.78;520803;28;749;-68
2024/03/19 00:20:45;;;;;;;4.40;3.70;;;;;;;8.89;76.78;92994.97;520837;28;808;-68
2024/03/19 00:21:01;;;;;;;4.13;3.43;;;;;;;8.91;76.76;92988.91;520788;28;828;-68
2024/03/19 00:21:16;;;;;;;3.92;3.10;;;;;;;8.93;76.72;92989.84;520875;28;824;-68
2024/03/19 00:21:31;;;;;;;3.57;3.00;;;;;;;8.96;76.64;92993.50;520871;28;781;-68
2024/03/19 00:21:47;;;;;;;4.43;3.70;;;;;;;8.97;76.60;92990.19;520857;28;801;-68
2024/03/19 00:22:02;;;;;;;5.43;3.67;;;;;;;9.00;76.44;92991.88;520806;28;745;-68
2024/03/19 00:22:18;;;;;;;4.00;3.17;;;;;;;8.70;76.31;92947.78;520846;28;856;-68
2024/03/19 00:22:34;;;;;;;4.83;3.47;;;;;;;9.04;76.51;92994.25;520861;28;830;-68
2024/03/19 00:22:49;;;;;;;6.43;3.75;;;;;;;9.07;76.21;92998.66;520821;28;872;-68
2024/03/19 00:23:05;;;;;;;5.87;3.90;;;;;;;9.09;76.15;92996.09;520840;28;1021;-68
2024/03/19 00:23:20;;;;;;;5.75;4.03;;;;;;;9.12;76.15;92994.97;520764;28;844;-68
2024/03/19 00:23:36;;;;;;;4.80;3.80;;;;;;;9.11;76.23;92996.28;520805;28;816;-68
2024/03/19 00:23:52;;;;;;;4.38;3.95;;;;;;;9.11;76.37;92997.03;520804;28;896;-68
2024/03/19 00:24:08;;;;;;;4.73;4.20;;;;;;;9.12;76.13;92992.97;520834;28;772;-68
2024/03/19 00:24:24;;;;;;;5.50;4.35;;;;;;;9.14;76.33;92992.41;520869;28;852;-68
2024/03/19 00:24:40;;;;;;;7.80;5.40;;;;;;;9.16;75.96;92989.84;520697;28;832;-69
2024/03/19 00:24:55;;;;;;;8.88;6.20;;;;;;;9.17;76.23;92994.06;520889;28;761;-68
2024/03/19 00:25:11;;;;;;;9.20;6.90;;;;;;;9.20;76.12;92989.47;520798;28;829;-68
2024/03/19 00:25:26;;;;;;;9.82;7.85;;;;;;;9.20;75.96;92998.50;520871;28;892;-68
2024/03/19 00:25:42;;;;;;;12.43;8.70;;;;;;;9.22;76.26;92990.41;521156;28;729;-68
2024/03/19 00:25:57;;;;;;;15.10;8.82;;;;;;;9.23;76.17;92991.84;521220;28;923;-68
2024/03/19 00:26:13;;;;;;;14.10;8.90;;;;;;;9.26;76.25;92996.28;521245;28;817;-68
2024/03/19 00:26:28;;;;;;;11.85;8.43;;;;;;;9.26;75.74;92993.53;521217;28;883;-68
2024/03/19 00:26:44;;;;;;;11.93;8.30;;;;;;;9.26;75.75;92996.28;521208;28;784;-68
2024/03/19 00:27:00;;;;;;;12.95;8.88;;;;;;;9.28;75.57;92993.69;521192;28;769;-68
2024/03/19 00:27:15;;;;;;;12.65;9.00;;;;;;;9.30;75.30;92993.88;521386;28;804;-68
2024/03/19 00:27:32;;;;;;;12.27;8.83;;;;;;;9.32;75.11;92996.81;521244;28;808;-68
2024/03/19 00:27:47;;;;;;;13.20;8.98;;;;;;;9.32;75.18;92996.81;521229;28;875;-68
2024/03/19 00:28:03;;;;;;;12.43;8.60;;;;;;;9.31;75.22;92997.38;521309;28;828;-68
2024/03/19 00:28:18;;;;;;;12.18;8.65;;;;;;;9.30;75.26;92993.16;521238;28;825;-68
2024/03/19 00:28:35;;;;;;;11.52;8.40;;;;;;;9.31;75.27;92992.63;521284;28;879;-68
2024/03/19 00:28:51;;;;;;;10.25;7.93;;;;;;;9.33;75.05;92997.56;521221;28;777;-68
2024/03/19 00:29:07;;;;;;;10.50;8.20;;;;;;;9.34;75.03;92990.75;521282;28;876;-68
2024/03/19 00:29:22;;;;;;;10.40;8.50;;;;;;;9.34;74.80;92990.75;521257;28;823;-68
2024/03/19 00:29:40;;;;;;;10.60;7.93;;;;;;;9.35;74.97;92995.00;521300;28;789;-68
2024/03/19 00:29:55;;;;;;;10.13;7.53;;;;;;;9.36;75.08;92999.19;521273;28;816;-68
2024/03/19 00:30:11;;;;;;;9.90;8.20;;;;;;;9.37;75.10;92993.16;521245;28;754;-68
2024/03/19 00:30:26;;;;;;;9.80;8.15;;;;;;;9.38;74.77;92988.34;521233;28;820;-68
2024/03/19 00:30:42;;;;;;;9.93;7.73;;;;;;;9.40;74.96;92991.31;521264;28;765;-68
2024/03/19 00:30:59;;;;;;;10.43;7.87;;;;;;;9.42;74.59;93000.47;521241;28;773;-68
2024/03/19 00:31:15;;;;;;;9.98;7.53;;;;;;;9.45;74.51;92995.91;521286;28;824;-68
2024/03/19 00:31:30;;;;;;;8.75;6.93;;;;;;;9.45;74.50;92996.63;521243;28;789;-68
2024/03/19 00:31:46;;;;;;;7.43;5.90;;;;;;;9.47;74.59;92990.56;521202;28;895;-68
2024/03/19 00:32:01;;;;;;;7.20;5.78;;;;;;;9.47;74.48;92996.81;521239;28;810;-68
2024/03/19 00:32:17;;;;;;;7.17;5.73;;;;;;;9.45;74.67;92987.63;521268;28;737;-68
2024/03/19 00:32:32;;;;;;;6.50;5.45;;;;;;;9.46;74.46;92989.84;521251;28;761;-68
2024/03/19 00:32:50;;;;;;;7.07;5.93;;;;;;;9.44;74.59;92992.41;521251;28;840;-68
2024/03/19 00:33:05;;;;;;;7.95;6.05;;;;;;;9.39;75.07;92990.59;521198;28;981;-68
2024/03/19 00:33:24;;;;;;;6.70;5.10;;;;;;;9.34;75.33;92988.00;521240;28;844;-68
2024/03/19 00:33:39;;;;;;;4.32;3.78;;;;;;;9.32;75.22;92991.31;521237;28;832;-68
2024/03/19 00:33:55;;;;;;;4.73;4.07;;;;;;;9.28;75.76;92984.69;521271;28;903;-68
2024/03/19 00:34:10;;;;;;;6.57;4.93;;;;;;;9.25;76.00;92983.06;521230;28;769;-68
2024/03/19 00:34:26;;;;;;;6.93;5.10;;;;;;;9.23;76.14;92997.38;521262;28;864;-68
2024/03/19 00:34:42;;;;;;;6.18;4.97;;;;;;;9.22;76.05;92989.66;521188;28;852;-68
2024/03/19 00:34:58;;;;;;;6.05;5.32;;;;;;;8.96;76.26;92952.22;521266;28;796;-68
2024/03/19 00:35:13;;;;;;;6.10;5.50;;;;;;;9.12;76.51;92981.94;521212;28;793;-68
2024/03/19 00:35:29;;;;;;;6.80;4.90;;;;;;;9.06;76.71;92984.16;521240;28;837;-68
2024/03/19 00:35:44;;;;;;;6.13;4.50;;;;;;;9.00;76.98;92982.88;523088;28;1253;-68
2024/03/19 00:36:00;;;;;;;4.90;4.07;;;;;;;8.97;77.57;92981.94;523146;28;765;-68
2024/03/19 00:36:17;;;;;;;4.87;3.97;;;;;;;8.97;77.25;92984.69;523131;28;772;-68
2024/03/19 00:36:32;;;;;;;6.47;4.93;;;;;;;8.99;77.58;92982.13;523063;28;1992;-68
2024/03/19 00:36:48;;;;;;;7.80;5.35;;;;;;;9.00;77.45;92983.59;523104;28;851;-68
2024/03/19 00:37:03;;;;;;;7.30;5.83;;;;;;;9.01;77.51;92978.81;523128;28;852;-68
2024/03/19 00:37:19;;;;;;;7.97;6.47;;;;;;;9.01;77.51;92976.06;523073;28;785;-68
2024/03/19 00:37:39;;;;;;;8.00;6.23;;;;;;;9.00;77.63;92980.84;522653;28;871;-68
2024/03/19 00:37:55;;;;;;;7.57;5.95;;;;;;;8.97;77.99;92979.19;521355;28;903;-68
2024/03/19 00:38:10;;;;;;;7.87;6.00;;;;;;;8.95;77.99;92979.00;521188;28;802;-68
2024/03/19 00:38:26;;;;;;;9.77;7.38;;;;;;;8.94;78.15;92976.81;521243;28;915;-68
2024/03/19 00:38:41;;;;;;;11.73;8.93;;;;;;;8.91;78.34;92981.38;521167;28;876;-68
2024/03/19 00:38:57;;;;;;;12.13;9.17;;;;;;;8.88;78.51;92981.75;521298;28;911;-68
2024/03/19 00:39:12;;;;;;;11.50;8.30;;;;;;;8.86;78.56;92978.78;521236;28;788;-68
2024/03/19 00:39:28;;;;;;;11.48;8.00;;;;;;;8.79;78.81;92974.75;521246;28;836;-68
2024/03/19 00:39:44;;;;;;;10.68;7.80;;;;;;;8.73;78.89;92974.19;521218;28;883;-68
2024/03/19 00:39:59;;;;;;;9.73;7.70;;;;;;;8.73;79.18;92984.47;521149;28;908;-68
2024/03/19 00:40:15;;;;;;;10.18;7.55;;;;;;;8.71;79.27;92974.00;521257;28;840;-68
2024/03/19 00:40:31;;;;;;;12.02;8.73;;;;;;;8.69;79.42;92976.59;521130;28;788;-68
2024/03/19 00:40:46;;;;;;;11.27;9.13;;;;;;;8.69;79.22;92981.34;521292;28;784;-68
2024/03/19 00:41:02;;;;;;;8.80;7.30;;;;;;;8.68;79.40;92969.63;521158;28;884;-68
2024/03/19 00:41:17;;;;;;;9.33;7.00;;;;;;;8.67;79.63;92968.13;521193;28;852;-68
2024/03/19 00:41:32;;;;;;;8.90;7.05;;;;;;;8.70;79.61;92982.81;521179;28;746;-68
2024/03/19 00:41:48;;;;;;;8.87;6.53;;;;;;;8.70;79.54;92980.81;521255;28;796;-68
2024/03/19 00:42:04;;;;;;;8.90;6.00;;;;;;;8.72;79.72;92972.75;521165;28;837;-68
2024/03/19 00:42:19;;;;;;;7.32;5.35;;;;;;;8.75;79.33;92971.63;521164;28;765;-68
2024/03/19 00:42:34;;;;;;;5.68;4.70;;;;;;;8.77;79.52;92977.31;521265;28;777;-68
2024/03/19 00:42:50;;;;;;;6.00;4.60;;;;;;;8.79;79.38;92977.50;521127;28;989;-68
2024/03/19 00:43:07;;;;;;;6.22;5.22;;;;;;;8.83;79.33;92979.91;521277;28;840;-68
2024/03/19 00:43:23;;;;;;;5.80;5.20;;;;;;;8.82;79.62;92973.66;521193;28;884;-68
2024/03/19 00:43:38;;;;;;;5.37;4.67;;;;;;;8.64;79.35;92952.72;521239;28;915;-68
2024/03/19 00:43:54;;;;;;;7.28;5.22;;;;;;;8.82;79.38;92975.69;521285;28;737;-68
2024/03/19 00:44:09;;;;;;;7.50;5.60;;;;;;;8.79;79.63;92969.25;521215;28;821;-68
2024/03/19 00:44:25;;;;;;;7.20;5.50;;;;;;;8.80;79.60;92972.75;521225;28;860;-68
2024/03/19 00:44:40;;;;;;;8.17;5.93;;;;;;;8.79;79.81;92969.25;521150;28;1085;-68
2024/03/19 00:44:56;;;;;;;7.15;5.97;;;;;;;8.80;79.93;92973.47;521261;28;840;-68
2024/03/19 00:45:12;;;;;;;6.68;5.82;;;;;;;8.80;79.78;92970.72;521160;28;871;-68
2024/03/19 00:45:28;;;;;;;7.47;6.00;;;;;;;8.83;79.75;92971.66;521286;28;836;-68
2024/03/19 00:45:43;;;;;;;7.77;5.97;;;;;;;8.62;79.68;92938.78;521245;28;804;-68
2024/03/19 00:45:59;;;;;;;6.82;5.50;;;;;;;8.87;79.70;92970.00;521228;28;1071;-68
2024/03/19 00:46:14;;;;;;;6.37;5.60;;;;;;;8.90;79.61;92970.94;521234;28;861;-68
2024/03/19 00:46:33;;;;;;;6.50;5.77;;;;;;;8.94;79.34;92974.75;521200;28;828;-68
2024/03/19 00:46:48;;;;;;;6.25;5.38;;;;;;;8.96;79.35;92974.97;521240;28;796;-68
2024/03/19 00:47:04;;;;;;;6.80;5.27;;;;;;;8.99;79.20;92978.63;521169;28;855;-68
2024/03/19 00:47:19;;;;;;;5.93;5.07;;;;;;;9.02;79.38;92974.78;521224;28;745;-70
2024/03/19 00:47:35;;;;;;;5.53;4.97;;;;;;;9.04;79.31;92978.47;521209;28;1126;-68
2024/03/19 00:47:51;;;;;;;5.80;5.20;;;;;;;9.05;79.21;92974.41;521181;28;1276;-68
2024/03/19 00:48:06;;;;;;;6.30;5.70;;;;;;;9.08;78.93;92978.84;521117;28;1559;-68
2024/03/19 00:48:22;;;;;;;8.20;6.28;;;;;;;8.85;78.88;92939.53;521146;28;757;-68
2024/03/19 00:48:37;;;;;;;9.50;6.70;;;;;;;9.14;79.01;92975.88;521211;28;896;-68
2024/03/19 00:48:53;;;;;;;9.50;7.10;;;;;;;9.16;78.81;92979.56;521213;28;784;-68
2024/03/19 00:49:09;;;;;;;9.67;7.10;;;;;;;9.16;78.82;92982.31;521260;28;760;-68
2024/03/19 00:49:26;;;;;;;8.05;6.03;;;;;;;9.18;78.95;92976.28;521274;28;840;-68
2024/03/19 00:49:41;;;;;;;5.88;4.70;;;;;;;9.20;78.72;92981.22;521201;28;904;-68
2024/03/19 00:49:57;;;;;;;5.63;4.80;;;;;;;9.21;78.67;92977.16;521269;28;911;-68
2024/03/19 00:50:12;;;;;;;5.88;5.03;;;;;;;9.21;78.36;92977.91;521185;28;756;-69
2024/03/19 00:50:27;;;;;;;5.73;4.87;;;;;;;9.24;78.35;92978.84;521218;28;781;-68
2024/03/19 00:50:43;;;;;;;6.32;5.22;;;;;;;9.24;78.17;92979.56;521223;28;800;-68
2024/03/19 00:50:58;;;;;;;6.80;5.47;;;;;;;9.24;77.89;92978.84;521156;28;911;-68
2024/03/19 00:51:14;;;;;;;6.13;5.35;;;;;;;9.25;78.14;92978.28;521214;28;745;-68
2024/03/19 00:51:29;;;;;;;5.90;5.13;;;;;;;9.27;77.79;92978.44;521232;28;789;-68
2024/03/19 00:51:45;;;;;;;5.70;5.10;;;;;;;9.28;77.64;92979.19;521316;28;753;-68
2024/03/19 00:52:00;;;;;;;6.13;5.53;;;;;;;9.28;78.01;92979.19;521165;28;758;-68
2024/03/19 00:52:16;;;;;;;6.47;5.87;;;;;;;9.28;78.00;92976.44;521222;28;764;-68
2024/03/19 00:52:32;;;;;;;7.30;6.55;;;;;;;9.25;77.98;92972.75;521089;28;887;-68
2024/03/19 00:52:47;;;;;;;9.30;7.65;;;;;;;9.30;77.63;92979.38;521318;28;915;-68
2024/03/19 00:53:03;;;;;;;10.13;8.43;;;;;;;9.30;77.91;92980.13;521130;28;825;-68
2024/03/19 00:53:18;;;;;;;12.25;9.15;;;;;;;9.32;77.55;92979.56;521204;28;785;-68
2024/03/19 00:53:34;;;;;;;13.20;8.83;;;;;;;9.32;77.63;92983.03;521216;28;848;-68
2024/03/19 00:53:49;;;;;;;12.35;9.02;;;;;;;9.33;77.79;92984.53;521145;28;753;-68
2024/03/19 00:54:05;;;;;;;12.70;9.30;;;;;;;9.36;77.75;92985.41;523181;28;796;-68
2024/03/19 00:54:20;;;;;;;12.95;9.05;;;;;;;9.35;77.30;92984.72;523081;28;789;-68
2024/03/19 00:54:36;;;;;;;11.77;9.33;;;;;;;9.36;77.58;92975.16;523157;28;884;-68
2024/03/19 00:54:52;;;;;;;11.82;9.70;;;;;;;9.35;77.27;92983.97;523077;28;761;-68
2024/03/19 00:55:08;;;;;;;13.25;9.50;;;;;;;9.34;76.87;92974.22;523145;28;879;-68
2024/03/19 00:55:25;;;;;;;13.00;8.90;;;;;;;9.35;76.79;92978.47;523090;28;929;-68
2024/03/19 00:55:40;;;;;;;11.75;8.15;;;;;;;9.35;77.20;92975.72;523051;28;840;-68
2024/03/19 00:55:56;;;;;;;11.57;8.13;;;;;;;9.36;76.65;92982.66;522467;28;748;-68
2024/03/19 00:56:11;;;;;;;13.73;8.90;;;;;;;9.37;76.57;92973.88;521220;28;824;-68
2024/03/19 00:56:27;;;;;;;13.57;9.47;;;;;;;9.37;76.75;92970.38;523034;28;1965;-68
2024/03/19 00:56:42;;;;;;;12.05;9.18;;;;;;;9.38;76.71;92978.09;523066;28;785;-68
2024/03/19 00:56:58;;;;;;;11.47;9.00;;;;;;;9.41;76.63;92974.22;523123;28;867;-68
2024/03/19 00:57:13;;;;;;;12.50;9.00;;;;;;;9.42;76.72;92978.44;523002;28;803;-68
2024/03/19 00:57:28;;;;;;;13.03;9.17;;;;;;;9.42;76.58;92975.69;523076;28;854;-68
2024/03/19 00:57:44;;;;;;;12.00;9.33;;;;;;;9.44;76.55;92975.88;523134;28;799;-68
2024/03/19 00:57:59;;;;;;;12.48;9.25;;;;;;;9.45;76.26;92973.84;523053;28;800;-68
2024/03/19 00:58:15;;;;;;;11.63;9.07;;;;;;;9.45;76.23;92977.34;522791;28;823;-68
2024/03/19 00:58:30;;;;;;;11.25;9.10;;;;;;;9.38;76.72;92974.59;521129;28;787;-68
2024/03/19 00:58:46;;;;;;;11.73;8.83;;;;;;;9.34;76.47;92983.22;521273;28;818;-68
2024/03/19 00:59:02;;;;;;;11.55;8.10;;;;;;;9.34;76.66;92972.22;521132;28;856;-68
2024/03/19 00:59:17;;;;;;;11.82;7.78;;;;;;;9.34;76.89;92979.72;521199;28;844;-68
2024/03/19 00:59:33;;;;;;;10.73;7.83;;;;;;;9.34;76.88;92974.97;521111;28;844;-68
2024/03/19 00:59:48;;;;;;;8.23;7.15;;;;;;;9.35;76.92;92983.97;521250;28;815;-68
2024/03/19 01:00:10;;;;;;;9.70;6.70;;;;;;;9.36;76.78;92974.41;521222;28;811;-68
2024/03/19 01:00:26;;;;;;;9.98;7.32;;;;;;;9.37;76.69;92975.88;521212;28;891;-68
2024/03/19 01:00:41;;;;;;;7.85;6.80;;;;;;;9.36;76.71;92971.66;521167;28;776;-68
2024/03/19 01:00:57;;;;;;;7.53;6.83;;;;;;;9.36;76.76;92977.91;521181;28;752;-68
2024/03/19 01:01:13;;;;;;;8.55;6.95;;;;;;;9.38;76.66;92977.34;521184;28;808;-68
2024/03/19 01:01:30;;;;;;;8.25;6.30;;;;;;;9.39;76.50;92973.31;521198;28;906;-68
2024/03/19 01:01:46;;;;;;;7.18;5.75;;;;;;;9.39;76.35;92973.31;521263;28;915;-68
2024/03/19 01:02:01;;;;;;;7.65;5.85;;;;;;;9.41;76.29;92971.47;521190;28;804;-68
2024/03/19 01:02:17;;;;;;;7.73;6.10;;;;;;;9.44;76.21;92980.66;521109;28;1065;-68
2024/03/19 01:02:32;;;;;;;6.97;5.87;;;;;;;9.44;76.34;92981.38;521153;28;766;-68
2024/03/19 01:02:47;;;;;;;7.55;6.35;;;;;;;9.45;76.52;92971.09;521244;28;847;-68
2024/03/19 01:03:03;;;;;;;7.43;6.40;;;;;;;9.47;76.07;92979.53;521263;28;761;-68
2024/03/19 01:03:20;;;;;;;8.18;6.28;;;;;;;9.48;76.40;92981.03;521192;28;769;-68
2024/03/19 01:03:36;;;;;;;9.90;6.40;;;;;;;9.50;76.34;92979.19;521199;28;907;-68
2024/03/19 01:03:52;;;;;;;8.57;6.10;;;;;;;9.52;76.13;92975.88;521178;28;811;-69
2024/03/19 01:04:08;;;;;;;7.38;5.90;;;;;;;9.53;75.75;92974.59;521207;28;831;-68
2024/03/19 01:04:23;;;;;;;7.03;5.60;;;;;;;9.54;75.88;92979.53;521181;28;883;-68
2024/03/19 01:04:39;;;;;;;6.50;5.90;;;;;;;9.56;75.82;92976.97;521268;28;780;-68
2024/03/19 01:04:54;;;;;;;6.27;5.67;;;;;;;9.57;75.85;92972.19;521233;28;998;-68
2024/03/19 01:05:11;;;;;;;6.03;5.20;;;;;;;9.58;75.40;92973.66;521131;28;837;-68
2024/03/19 01:05:26;;;;;;;6.15;5.50;;;;;;;9.60;75.30;92977.31;521214;28;915;-68
2024/03/19 01:05:42;;;;;;;6.40;5.50;;;;;;;9.60;75.56;92977.31;521217;28;780;-69
2024/03/19 01:05:57;;;;;;;5.80;4.70;;;;;;;9.62;75.19;92976.75;521245;28;789;-68
2024/03/19 01:06:13;;;;;;;6.10;4.80;;;;;;;9.63;75.15;92969.97;521120;28;843;-67
2024/03/19 01:06:28;;;;;;;6.10;5.07;;;;;;;9.63;74.97;92970.72;521163;28;820;-68
2024/03/19 01:06:43;;;;;;;5.70;4.50;;;;;;;9.64;74.92;92974.94;521172;28;796;-68
2024/03/19 01:07:00;;;;;;;4.90;4.07;;;;;;;9.65;74.96;92972.91;521188;28;769;-68
2024/03/19 01:07:15;;;;;;;4.18;3.75;;;;;;;9.65;74.94;92970.16;521107;28;824;-68
2024/03/19 01:07:31;;;;;;;4.57;4.07;;;;;;;9.64;74.81;92966.66;521210;28;737;-68
2024/03/19 01:07:46;;;;;;;5.23;4.47;;;;;;;9.64;74.91;92972.16;521138;28;999;-68
2024/03/19 01:08:02;;;;;;;4.93;4.43;;;;;;;9.64;74.68;92972.16;521232;28;769;-68
2024/03/19 01:08:18;;;;;;;5.17;4.63;;;;;;;9.65;74.74;92972.91;521220;28;998;-68
2024/03/19 01:08:33;;;;;;;5.32;4.45;;;;;;;9.53;75.07;92956.03;521170;28;874;-68
2024/03/19 01:08:49;;;;;;;4.60;4.10;;;;;;;9.63;74.88;92969.97;521205;28;773;-68
2024/03/19 01:09:14;;;;;;;4.70;4.20;;;;;;;9.64;74.99;92972.16;521144;28;804;-68
2024/03/19 01:09:30;;;;;;;5.30;4.80;;;;;;;9.65;75.21;92978.41;521090;28;914;-68
2024/03/19 01:09:45;;;;;;;4.90;4.50;;;;;;;9.63;75.33;92972.72;521198;28;773;-68
2024/03/19 01:10:01;;;;;;;5.80;4.77;;;;;;;9.63;75.17;92972.72;521228;28;741;-68
2024/03/19 01:10:17;;;;;;;6.43;5.07;;;;;;;9.61;75.18;92969.78;521163;28;836;-68
2024/03/19 01:10:33;;;;;;;6.10;5.15;;;;;;;9.59;75.51;92964.84;521128;28;792;-68
2024/03/19 01:10:48;;;;;;;6.90;5.50;;;;;;;9.51;76.10;92966.84;521185;28;773;-68
2024/03/19 01:11:04;;;;;;;7.47;5.57;;;;;;;9.27;76.19;92941.94;521205;28;803;-68
2024/03/19 01:11:20;;;;;;;8.10;5.95;;;;;;;9.20;76.53;92945.41;521178;28;804;-68
2024/03/19 01:11:35;;;;;;;9.57;6.93;;;;;;;9.26;76.77;92962.47;521185;28;847;-68
2024/03/19 01:11:51;;;;;;;10.32;7.22;;;;;;;9.23;76.84;92966.31;521154;28;821;-68
2024/03/19 01:12:08;;;;;;;10.27;6.43;;;;;;;9.23;77.01;92969.09;521233;28;792;-68
2024/03/19 01:12:23;;;;;;;9.23;6.43;;;;;;;9.24;77.13;92967.81;521028;28;934;-68
2024/03/19 01:12:40;;;;;;;8.15;6.97;;;;;;;9.24;76.97;92971.31;521175;28;836;-68
2024/03/19 01:12:55;;;;;;;8.55;7.13;;;;;;;9.24;77.08;92968.56;521216;28;899;-68
2024/03/19 01:13:11;;;;;;;9.60;7.20;;;;;;;9.27;77.25;92959.16;521116;28;765;-68
2024/03/19 01:13:26;;;;;;;9.47;6.97;;;;;;;9.31;77.04;92961.56;521211;28;840;-68
2024/03/19 01:13:43;;;;;;;9.10;6.85;;;;;;;9.33;77.20;92961.75;521172;28;848;-68
2024/03/19 01:14:02;;;;;;;8.82;6.55;;;;;;;9.33;77.14;92962.50;521151;28;844;-68
2024/03/19 01:14:17;;;;;;;7.78;6.50;;;;;;;9.35;76.93;92964.69;521230;28;891;-68
2024/03/19 01:14:33;;;;;;;6.93;6.22;;;;;;;9.36;76.86;92960.63;521077;28;808;-68
2024/03/19 01:14:48;;;;;;;7.10;6.10;;;;;;;9.37;77.00;92965.59;521204;28;792;-68
2024/03/19 01:15:08;;;;;;;7.97;6.30;;;;;;;9.39;76.81;92959.53;521168;28;792;-68
2024/03/19 01:15:24;;;;;;;6.90;5.55;;;;;;;9.42;76.99;92969.47;521248;28;821;-68
2024/03/19 01:15:39;;;;;;;7.33;5.87;;;;;;;9.43;76.83;92962.66;521146;28;827;-68
2024/03/19 01:15:55;;;;;;;7.80;6.25;;;;;;;9.43;76.63;92965.41;521221;28;753;-68
2024/03/19 01:16:11;;;;;;;9.05;6.28;;;;;;;9.39;77.08;92959.53;521148;28;757;-68
2024/03/19 01:16:26;;;;;;;10.27;6.43;;;;;;;9.32;77.19;92966.53;521081;28;1970;-68
2024/03/19 01:16:42;;;;;;;9.32;6.65;;;;;;;9.24;77.65;92963.03;521084;28;800;-68
2024/03/19 01:16:57;;;;;;;7.70;6.47;;;;;;;9.19;77.73;92961.19;521180;28;800;-68
2024/03/19 01:17:13;;;;;;;6.78;6.07;;;;;;;9.12;77.89;92957.16;521158;28;828;-68
2024/03/19 01:17:28;;;;;;;6.83;5.93;;;;;;;9.11;78.04;92955.72;521063;28;776;-68
2024/03/19 01:17:44;;;;;;;7.07;5.93;;;;;;;9.11;78.20;92955.72;521164;28;769;-68